createdAt,value
2023-04-21T00:00:13.506Z,36.20
2023-04-21T00:02:46.705Z,32.70
2023-04-21T00:05:18.927Z,34.10
2023-04-21T00:07:50.754Z,35.88
2023-04-21T00:10:22.544Z,32.30
2023-04-21T00:12:54.252Z,32.45
2023-04-21T00:15:25.995Z,37.72
2023-04-21T00:17:59.023Z,32.85
2023-04-21T00:20:31.615Z,36.00
2023-04-21T00:23:04.310Z,34.47
2023-04-21T00:25:36.080Z,35.15
2023-04-21T00:28:09.750Z,36.83
2023-04-21T00:30:43.555Z,36.50
2023-04-21T00:33:15.288Z,32.38
2023-04-21T00:35:47.220Z,30.90
2023-04-21T00:38:18.896Z,31.40
2023-04-21T00:40:50.718Z,34.60
2023-04-21T00:43:22.501Z,34.85
2023-04-21T00:46:00.251Z,30.95
2023-04-21T00:48:31.930Z,31.27
2023-04-21T00:51:04.320Z,35.00
2023-04-21T00:53:36.453Z,31.30
2023-04-21T00:56:08.309Z,32.78
2023-04-21T00:58:45.708Z,34.55
2023-04-21T01:01:17.577Z,33.60
2023-04-21T01:03:50.598Z,35.42
2023-04-21T01:06:22.523Z,32.40
2023-04-21T01:08:55.483Z,33.47
2023-04-21T01:11:27.454Z,34.22
2023-04-21T01:13:59.120Z,35.50
2023-04-21T01:16:32.908Z,34.63
2023-04-21T01:19:05.998Z,36.90
2023-04-21T01:21:41.868Z,34.25
2023-04-21T01:26:49.252Z,32.30
2023-04-21T01:29:21.083Z,33.88
2023-04-21T01:31:52.881Z,33.05
2023-04-21T01:34:24.595Z,36.20
2023-04-21T01:36:56.348Z,37.05
2023-04-21T01:39:28.513Z,35.13
2023-04-21T01:42:00.816Z,39.28
2023-04-21T01:44:32.951Z,33.53
2023-04-21T01:47:07.467Z,32.25
2023-04-21T01:49:39.175Z,31.85
2023-04-21T01:52:11.441Z,36.60
2023-04-21T01:54:43.347Z,33.38
2023-04-21T01:57:15.656Z,34.50
2023-04-21T01:59:48.348Z,32.35
2023-04-21T02:02:20.278Z,31.45
2023-04-21T02:04:53.041Z,35.20
2023-04-21T02:07:26.040Z,38.63
2023-04-21T02:09:58.608Z,37.15
2023-04-21T02:12:30.312Z,35.75
2023-04-21T02:15:02.087Z,33.65
2023-04-21T02:17:34.050Z,33.80
2023-04-21T02:20:07.236Z,34.78
2023-04-21T02:22:39.447Z,37.97
2023-04-21T02:25:11.303Z,37.05
2023-04-21T02:27:44.084Z,36.72
2023-04-21T02:30:15.847Z,34.45
2023-04-21T02:32:47.703Z,34.28
2023-04-21T02:35:19.550Z,35.92
2023-04-21T02:37:51.308Z,41.95
2023-04-21T02:40:23.131Z,36.40
2023-04-21T02:42:58.042Z,34.78
2023-04-21T02:45:30.543Z,32.58
2023-04-21T02:48:02.396Z,36.78
2023-04-21T02:50:35.479Z,36.05
2023-04-21T02:53:07.627Z,39.17
2023-04-21T02:55:39.370Z,41.70
2023-04-21T02:58:11.214Z,39.95
2023-04-21T03:00:42.956Z,39.40
2023-04-21T03:03:16.004Z,39.20
2023-04-21T03:05:47.925Z,37.03
2023-04-21T03:08:19.697Z,31.40
2023-04-21T03:10:51.861Z,33.80
2023-04-21T03:13:27.003Z,37.67
2023-04-21T03:15:58.732Z,33.15
2023-04-21T03:18:30.525Z,35.30
2023-04-21T03:21:03.968Z,40.28
2023-04-21T03:23:36.092Z,36.95
2023-04-21T03:26:08.750Z,32.78
2023-04-21T03:28:41.892Z,37.25
2023-04-21T03:31:16.429Z,38.65
2023-04-21T03:36:21.247Z,44.30
2023-04-21T03:38:52.951Z,41.03
2023-04-21T03:41:27.912Z,36.08
2023-04-21T03:43:59.648Z,39.85
2023-04-21T03:46:31.462Z,37.55
2023-04-21T03:49:04.963Z,38.95
2023-04-21T03:51:36.666Z,38.45
2023-04-21T03:54:08.579Z,37.30
2023-04-21T03:56:43.009Z,36.42
2023-04-21T03:59:14.689Z,37.28
2023-04-21T04:01:46.427Z,38.28
2023-04-21T04:04:18.517Z,36.95
2023-04-21T04:06:50.577Z,42.78
2023-04-21T04:09:22.768Z,43.47
2023-04-21T04:11:54.485Z,41.60
2023-04-21T04:14:33.548Z,34.63
2023-04-21T04:17:08.197Z,36.17
2023-04-21T04:22:14.624Z,38.65
2023-04-21T04:27:18.049Z,36.70
2023-04-21T04:29:51.022Z,41.17
2023-04-21T04:32:22.767Z,35.97
2023-04-21T04:34:58.983Z,38.70
2023-04-21T04:37:36.834Z,36.70
2023-04-21T04:40:12.331Z,43.88
2023-04-21T04:42:45.583Z,41.80
2023-04-21T04:45:17.390Z,34.70
2023-04-21T04:47:52.114Z,35.75
2023-04-21T04:52:58.568Z,34.95
2023-04-21T04:55:30.292Z,34.83
2023-04-21T04:58:02.198Z,34.65
2023-04-21T05:00:34.179Z,30.20
2023-04-21T05:03:06.221Z,34.88
2023-04-21T05:05:38.104Z,32.33
2023-04-21T05:08:11.465Z,34.72
2023-04-21T05:10:46.058Z,32.20
2023-04-21T05:13:18.248Z,30.85
2023-04-21T05:15:49.953Z,27.13
2023-04-21T05:18:21.639Z,27.67
2023-04-21T05:20:53.485Z,28.13
2023-04-21T05:23:25.328Z,27.38
2023-04-21T05:25:57.111Z,25.92
2023-04-21T05:28:30.178Z,27.75
2023-04-21T05:31:01.946Z,25.15
2023-04-21T05:33:33.758Z,25.60
2023-04-21T05:36:10.539Z,22.58
2023-04-21T05:38:42.293Z,24.35
2023-04-21T05:41:14.967Z,21.00
2023-04-21T05:43:47.612Z,20.35
2023-04-21T05:46:19.429Z,24.45
2023-04-21T05:48:51.193Z,19.52
2023-04-21T05:51:25.035Z,22.13
2023-04-21T05:53:56.760Z,21.25
2023-04-21T05:56:28.530Z,24.30
2023-04-21T05:59:00.378Z,21.60
2023-04-21T06:01:32.201Z,23.98
2023-04-21T06:04:07.129Z,20.95
2023-04-21T06:06:39.072Z,21.08
2023-04-21T06:09:10.970Z,19.30
2023-04-21T06:11:42.757Z,16.27
2023-04-21T06:14:16.945Z,18.25
2023-04-21T06:16:48.645Z,15.48
2023-04-21T06:19:20.541Z,17.38
2023-04-21T06:21:52.386Z,16.88
2023-04-21T06:24:26.919Z,14.57
2023-04-21T06:26:58.657Z,14.63
2023-04-21T06:29:30.409Z,18.45
2023-04-21T06:32:02.213Z,17.58
2023-04-21T06:34:34.122Z,16.85
2023-04-21T06:37:07.117Z,16.10
2023-04-21T06:39:38.791Z,14.32
2023-04-21T06:42:10.671Z,14.85
2023-04-21T06:44:48.818Z,13.73
2023-04-21T06:47:22.377Z,15.57
2023-04-21T06:49:54.162Z,19.35
2023-04-21T06:52:26.193Z,20.70
2023-04-21T06:54:57.994Z,16.20
2023-04-21T06:57:29.811Z,16.63
2023-04-21T07:00:01.877Z,15.60
2023-04-21T07:02:33.823Z,13.27
2023-04-21T07:05:08.115Z,19.55
2023-04-21T07:07:39.780Z,15.68
2023-04-21T07:10:11.514Z,13.63
2023-04-21T07:12:43.224Z,15.90
2023-04-21T07:15:14.960Z,17.05
2023-04-21T07:17:47.008Z,13.55
2023-04-21T07:20:19.062Z,16.15
2023-04-21T07:22:50.887Z,14.65
2023-04-21T07:25:22.621Z,15.00
2023-04-21T07:27:54.442Z,13.27
2023-04-21T07:30:26.439Z,13.40
2023-04-21T07:32:58.468Z,13.35
2023-04-21T07:35:30.193Z,12.07
2023-04-21T07:38:04.707Z,12.48
2023-04-21T07:43:10.120Z,13.15
2023-04-21T07:45:41.832Z,13.70
2023-04-21T07:48:13.671Z,15.43
2023-04-21T07:50:45.432Z,13.68
2023-04-21T07:53:17.205Z,12.57
2023-04-21T07:55:48.956Z,12.45
2023-04-21T07:58:22.168Z,11.95
2023-04-21T08:00:53.923Z,11.35
2023-04-21T08:03:26.222Z,18.67
2023-04-21T08:05:58.375Z,15.38
2023-04-21T08:08:31.939Z,16.45
2023-04-21T08:11:04.252Z,13.52
2023-04-21T08:13:36.508Z,11.88
2023-04-21T08:16:08.583Z,14.73
2023-04-21T08:18:40.364Z,10.65
2023-04-21T08:21:12.171Z,10.75
2023-04-21T08:23:46.575Z,17.83
2023-04-21T08:28:53.090Z,13.40
2023-04-21T08:31:24.932Z,12.27
2023-04-21T08:34:01.823Z,13.98
2023-04-21T08:36:34.936Z,13.85
2023-04-21T08:39:07.135Z,15.38
2023-04-21T08:41:41.733Z,11.23
2023-04-21T08:44:13.606Z,17.67
2023-04-21T08:46:50.436Z,13.15
2023-04-21T08:49:29.328Z,11.48
2023-04-21T08:52:01.096Z,15.13
2023-04-21T08:54:33.426Z,10.20
2023-04-21T08:57:14.773Z,10.77
2023-04-21T08:59:47.856Z,11.18
2023-04-21T09:02:19.846Z,16.02
2023-04-21T09:04:52.554Z,16.67
2023-04-21T09:07:36.515Z,11.45
2023-04-21T09:10:08.651Z,16.08
2023-04-21T09:12:40.996Z,11.40
2023-04-21T09:15:12.940Z,17.33
2023-04-21T09:17:45.877Z,18.55
2023-04-21T09:20:20.625Z,18.15
2023-04-21T09:22:53.266Z,9.45
2023-04-21T09:25:25.006Z,10.85
2023-04-21T09:27:57.193Z,11.82
2023-04-21T09:30:38.014Z,13.02
2023-04-21T09:33:27.911Z,11.30
2023-04-21T09:36:05.539Z,9.80
2023-04-21T09:38:37.523Z,13.40
2023-04-21T09:41:09.234Z,9.43
2023-04-21T09:43:40.953Z,14.68
2023-04-21T09:46:16.227Z,15.73
2023-04-21T09:48:48.530Z,8.15
2023-04-21T09:51:36.901Z,11.18
2023-04-21T09:56:56.066Z,13.65
2023-04-21T09:59:47.791Z,15.18
2023-04-21T10:02:20.797Z,12.70
2023-04-21T10:04:53.019Z,13.80
2023-04-21T10:07:24.929Z,10.57
2023-04-21T10:09:59.322Z,9.07
2023-04-21T10:15:05.460Z,15.30
2023-04-21T10:17:37.465Z,8.10
2023-04-21T10:20:09.795Z,8.23
2023-04-21T10:22:42.941Z,11.18
2023-04-21T10:25:14.711Z,15.50
2023-04-21T10:27:46.418Z,9.65
2023-04-21T10:30:28.860Z,8.32
2023-04-21T10:33:05.514Z,11.07
2023-04-21T10:36:03.232Z,7.30
2023-04-21T10:38:44.625Z,10.25
2023-04-21T10:41:30.515Z,7.55
2023-04-21T10:44:13.389Z,10.35
2023-04-21T10:46:49.698Z,8.13
2023-04-21T10:49:23.720Z,8.18
2023-04-21T10:52:04.034Z,9.82
2023-04-21T10:54:48.065Z,13.70
2023-04-21T10:57:20.700Z,6.60
2023-04-21T10:59:53.221Z,10.73
2023-04-21T11:02:25.158Z,9.93
2023-04-21T11:04:57.437Z,10.93
2023-04-21T11:07:29.510Z,7.25
2023-04-21T11:10:04.323Z,7.00
2023-04-21T11:12:40.411Z,11.10
2023-04-21T11:15:14.408Z,15.07
2023-04-21T11:17:47.182Z,5.27
2023-04-21T11:20:19.241Z,9.15
2023-04-21T11:22:53.324Z,15.10
2023-04-21T11:25:27.623Z,8.63
2023-04-21T11:28:04.326Z,7.40
2023-04-21T11:30:38.927Z,7.15
2023-04-21T11:33:10.762Z,10.43
2023-04-21T11:35:42.638Z,10.38
2023-04-21T11:38:15.977Z,8.55
2023-04-21T11:40:48.800Z,9.57
2023-04-21T11:43:21.634Z,5.20
2023-04-21T11:45:53.399Z,5.50
2023-04-21T11:48:30.036Z,9.07
2023-04-21T11:51:01.876Z,7.28
2023-04-21T11:53:33.684Z,6.85
2023-04-21T11:56:08.237Z,8.20
2023-04-21T11:58:40.462Z,9.05
2023-04-21T12:01:15.813Z,8.77
2023-04-21T12:03:52.350Z,7.97
2023-04-21T12:06:28.785Z,17.20
2023-04-21T12:09:02.698Z,9.32
2023-04-21T12:11:37.703Z,6.68
2023-04-21T12:14:09.406Z,9.48
2023-04-21T12:16:41.354Z,8.70
2023-04-21T12:19:42.671Z,8.55
2023-04-21T12:22:18.595Z,8.00
2023-04-21T12:24:50.397Z,14.13
2023-04-21T12:27:22.169Z,10.80
2023-04-21T12:29:54.207Z,10.95
2023-04-21T12:32:26.323Z,9.35
2023-04-21T12:35:00.632Z,12.80
2023-04-21T12:37:32.318Z,6.45
2023-04-21T12:40:06.344Z,7.72
2023-04-21T12:42:38.558Z,12.77
2023-04-21T12:45:10.735Z,7.60
2023-04-21T12:47:44.815Z,5.63
2023-04-21T12:50:18.805Z,8.27
2023-04-21T12:52:51.604Z,6.40
2023-04-21T12:55:23.556Z,12.30
2023-04-21T12:57:57.460Z,5.22
2023-04-21T13:00:33.342Z,7.60
2023-04-21T13:03:05.266Z,7.57
2023-04-21T13:05:37.148Z,4.95
2023-04-21T13:08:08.905Z,11.38
2023-04-21T13:10:40.756Z,12.32
2023-04-21T13:13:12.567Z,9.40
2023-04-21T13:15:44.619Z,10.65
2023-04-21T13:18:16.376Z,12.00
2023-04-21T13:20:48.164Z,8.82
2023-04-21T13:23:19.893Z,11.05
2023-04-21T13:25:52.911Z,7.35
2023-04-21T13:28:27.834Z,13.68
2023-04-21T13:30:59.645Z,9.98
2023-04-21T13:33:34.985Z,6.45
2023-04-21T13:36:07.252Z,7.55
2023-04-21T13:38:40.630Z,11.57
2023-04-21T13:41:12.439Z,15.73
2023-04-21T13:43:44.240Z,8.38
2023-04-21T13:46:16.123Z,6.90
2023-04-21T13:48:48.311Z,7.95
2023-04-21T13:51:23.463Z,6.28
2023-04-21T13:53:55.428Z,13.43
2023-04-21T13:56:30.006Z,6.05
2023-04-21T13:59:01.837Z,7.93
2023-04-21T14:01:33.670Z,8.18
2023-04-21T14:04:05.814Z,6.65
2023-04-21T14:06:37.682Z,6.35
2023-04-21T14:09:09.630Z,10.93
2023-04-21T14:11:41.500Z,10.50
2023-04-21T14:16:49.420Z,10.25
2023-04-21T14:19:21.349Z,9.48
2023-04-21T14:21:53.044Z,16.15
2023-04-21T14:24:28.705Z,25.38
2023-04-21T14:27:01.190Z,6.00
2023-04-21T14:29:35.718Z,8.13
2023-04-21T14:32:08.933Z,10.10
2023-04-21T14:34:40.683Z,8.40
2023-04-21T14:37:12.599Z,7.68
2023-04-21T14:39:44.322Z,9.00
2023-04-21T14:42:19.176Z,10.23
2023-04-21T14:44:51.058Z,11.38
2023-04-21T14:47:23.034Z,8.77
2023-04-21T14:49:56.087Z,6.15
2023-04-21T14:52:27.886Z,6.07
2023-04-21T14:55:03.623Z,10.00
2023-04-21T14:57:35.356Z,5.68
2023-04-21T15:00:07.881Z,11.63
2023-04-21T15:02:39.816Z,24.98
2023-04-21T15:05:11.792Z,7.28
2023-04-21T15:07:43.470Z,7.93
2023-04-21T15:10:15.335Z,11.43
2023-04-21T15:12:47.229Z,8.10
2023-04-21T15:15:19.127Z,7.75
2023-04-21T15:17:50.908Z,7.75
2023-04-21T15:20:32.716Z,7.45
2023-04-21T15:23:13.019Z,8.32
2023-04-21T15:25:44.800Z,9.43
2023-04-21T15:28:16.501Z,5.90
2023-04-21T15:30:48.279Z,6.28
2023-04-21T15:33:20.032Z,9.85
2023-04-21T15:35:52.353Z,7.45
2023-04-21T15:38:26.350Z,10.10
2023-04-21T15:41:01.007Z,11.73
2023-04-21T15:43:33.393Z,5.45
2023-04-21T15:46:13.048Z,14.23
2023-04-21T15:48:45.052Z,7.72
2023-04-21T15:51:18.413Z,7.35
2023-04-21T15:53:53.261Z,8.27
2023-04-21T15:56:25.052Z,7.18
2023-04-21T15:58:57.194Z,12.48
2023-04-21T16:01:29.021Z,10.32
2023-04-21T16:04:00.955Z,12.05
2023-04-21T16:06:33.305Z,7.22
2023-04-21T16:09:05.420Z,8.07
2023-04-21T16:11:37.367Z,7.97
2023-04-21T16:14:09.600Z,8.98
2023-04-21T16:16:41.400Z,12.98
2023-04-21T16:19:13.416Z,7.15
2023-04-21T16:21:45.248Z,9.73
2023-04-21T16:24:17.199Z,7.93
2023-04-21T16:26:49.374Z,8.75
2023-04-21T16:29:21.165Z,13.10
2023-04-21T16:31:52.991Z,8.95
2023-04-21T16:34:24.988Z,5.15
2023-04-21T16:36:56.778Z,13.57
2023-04-21T16:39:28.543Z,7.25
2023-04-21T16:42:00.335Z,23.27
2023-04-21T16:44:32.122Z,7.60
2023-04-21T16:47:03.926Z,11.02
2023-04-21T16:49:35.727Z,8.82
2023-04-21T16:52:07.475Z,10.25
2023-04-21T16:54:39.964Z,13.95
2023-04-21T16:57:12.189Z,10.75
2023-04-21T16:59:44.044Z,7.10
2023-04-21T17:02:15.764Z,8.82
2023-04-21T17:04:47.577Z,10.38
2023-04-21T17:07:21.423Z,14.23
2023-04-21T17:09:53.284Z,10.93
2023-04-21T17:12:25.072Z,9.77
2023-04-21T17:14:57.118Z,9.10
2023-04-21T17:17:39.970Z,10.07
2023-04-21T17:20:13.986Z,8.18
2023-04-21T17:22:50.408Z,9.10
2023-04-21T17:25:22.236Z,6.03
2023-04-21T17:27:54.122Z,10.38
2023-04-21T17:30:25.910Z,9.02
2023-04-21T17:33:08.335Z,6.55
2023-04-21T17:36:02.137Z,7.35
2023-04-21T17:38:35.289Z,7.78
2023-04-21T17:41:07.749Z,13.30
2023-04-21T17:43:39.614Z,10.18
2023-04-21T17:46:11.641Z,10.18
2023-04-21T17:48:43.472Z,12.68
2023-04-21T17:51:15.309Z,7.50
2023-04-21T17:53:47.029Z,7.03
2023-04-21T17:56:18.964Z,10.52
2023-04-21T17:58:50.811Z,8.98
2023-04-21T18:01:22.686Z,10.93
2023-04-21T18:03:57.110Z,19.75
2023-04-21T18:06:31.942Z,8.50
2023-04-21T18:09:07.287Z,9.70
2023-04-21T18:11:39.175Z,9.45
2023-04-21T18:14:11.034Z,7.30
2023-04-21T18:16:42.804Z,7.07
2023-04-21T18:19:14.639Z,7.93
2023-04-21T18:21:46.593Z,11.73
2023-04-21T18:24:18.462Z,12.50
2023-04-21T18:26:51.375Z,10.20
2023-04-21T18:29:24.348Z,10.88
2023-04-21T18:31:56.353Z,11.77
2023-04-21T18:34:28.161Z,12.82
2023-04-21T18:36:59.972Z,13.93
2023-04-21T18:39:32.717Z,12.63
2023-04-21T18:42:04.571Z,13.25
2023-04-21T18:44:39.477Z,12.27
2023-04-21T18:47:12.181Z,12.90
2023-04-21T18:49:45.265Z,12.40
2023-04-21T18:52:17.086Z,13.35
2023-04-21T18:54:48.789Z,15.25
2023-04-21T18:57:22.493Z,13.93
2023-04-21T18:59:54.362Z,10.20
2023-04-21T19:02:26.342Z,11.13
2023-04-21T19:04:58.675Z,11.68
2023-04-21T19:07:30.358Z,11.52
2023-04-21T19:10:02.129Z,8.15
2023-04-21T19:12:34.274Z,14.13
2023-04-21T19:15:06.784Z,9.02
2023-04-21T19:17:39.705Z,10.75
2023-04-21T19:20:12.168Z,10.63
2023-04-21T19:22:44.370Z,9.23
2023-04-21T19:25:17.528Z,8.98
2023-04-21T19:27:49.283Z,10.65
2023-04-21T19:30:21.797Z,10.68
2023-04-21T19:32:54.908Z,8.48
2023-04-21T19:35:27.645Z,9.77
2023-04-21T19:38:00.623Z,10.52
2023-04-21T19:40:32.576Z,15.10
2023-04-21T19:43:04.995Z,14.27
2023-04-21T19:45:37.861Z,9.95
2023-04-21T19:48:12.619Z,11.25
2023-04-21T19:50:44.528Z,12.38
2023-04-21T19:53:16.288Z,11.88
2023-04-21T19:55:51.837Z,19.65
2023-04-21T19:58:38.703Z,18.73
2023-04-21T20:01:12.270Z,14.10
2023-04-21T20:03:44.222Z,16.73
2023-04-21T20:06:16.540Z,16.38
2023-04-21T20:08:48.396Z,15.18
2023-04-21T20:11:21.044Z,17.17
2023-04-21T20:13:52.746Z,21.20
2023-04-21T20:16:26.554Z,18.30
2023-04-21T20:18:58.871Z,17.20
2023-04-21T20:21:30.543Z,14.93
2023-04-21T20:24:02.493Z,21.63
2023-04-21T20:26:34.664Z,17.98
2023-04-21T20:29:06.349Z,16.67
2023-04-21T20:31:38.824Z,18.58
2023-04-21T20:34:10.590Z,18.83
2023-04-21T20:36:42.396Z,22.13
2023-04-21T20:39:14.369Z,18.20
2023-04-21T20:41:46.209Z,17.90
2023-04-21T20:44:23.141Z,15.45
2023-04-21T20:46:55.058Z,16.00
2023-04-21T20:49:27.157Z,16.15
2023-04-21T20:51:59.853Z,16.27
2023-04-21T20:54:34.518Z,15.35
2023-04-21T20:57:07.684Z,21.35
2023-04-21T20:59:39.830Z,19.83
2023-04-21T21:02:11.872Z,22.90
2023-04-21T21:04:47.687Z,28.67
2023-04-21T21:07:19.405Z,25.67
2023-04-21T21:09:51.083Z,22.35
2023-04-21T21:12:22.999Z,18.90
2023-04-21T21:14:54.673Z,21.58
2023-04-21T21:17:26.477Z,19.27
2023-04-21T21:19:58.729Z,17.58
2023-04-21T21:22:30.559Z,19.73
2023-04-21T21:25:02.410Z,17.17
2023-04-21T21:27:34.362Z,20.27
2023-04-21T21:30:07.810Z,20.15
2023-04-21T21:32:39.849Z,18.65
2023-04-21T21:35:12.081Z,17.90
2023-04-21T21:37:43.920Z,23.73
2023-04-21T21:40:15.832Z,19.67
2023-04-21T21:42:50.884Z,20.10
2023-04-21T21:45:23.103Z,22.40
2023-04-21T21:47:56.047Z,19.73
2023-04-21T21:50:27.894Z,20.20
2023-04-21T21:52:59.643Z,15.43
2023-04-21T21:55:35.784Z,18.42
2023-04-21T21:58:09.304Z,23.35
2023-04-21T22:00:43.816Z,26.15
2023-04-21T22:03:15.706Z,18.42
2023-04-21T22:05:48.497Z,16.30
2023-04-21T22:08:20.285Z,18.88
2023-04-21T22:10:52.015Z,20.38
2023-04-21T22:13:23.855Z,20.27
2023-04-21T22:15:59.584Z,24.42
2023-04-21T22:18:31.313Z,18.63
2023-04-21T22:21:03.035Z,21.73
2023-04-21T22:23:34.746Z,21.98
2023-04-21T22:26:06.837Z,21.98
2023-04-21T22:28:38.563Z,23.65
2023-04-21T22:31:10.570Z,24.13
2023-04-21T22:33:42.380Z,19.48
2023-04-21T22:36:20.148Z,18.40
2023-04-21T22:38:52.254Z,18.77
2023-04-21T22:44:26.964Z,18.88
2023-04-21T22:46:58.724Z,18.80
2023-04-21T22:49:33.041Z,22.38
2023-04-21T22:52:04.804Z,19.20
2023-04-21T22:57:33.291Z,24.40
2023-04-21T23:00:09.692Z,27.38
2023-04-21T23:02:41.478Z,21.90
2023-04-21T23:05:14.064Z,23.42
2023-04-21T23:07:47.776Z,19.63
2023-04-21T23:10:19.515Z,19.52
2023-04-21T23:12:51.268Z,19.83
2023-04-21T23:15:23.194Z,18.52
2023-04-21T23:17:56.956Z,24.95
2023-04-21T23:20:28.759Z,18.58
2023-04-21T23:23:00.606Z,21.55
2023-04-21T23:25:32.339Z,19.58
2023-04-21T23:28:04.100Z,18.13
2023-04-21T23:30:35.829Z,24.33
2023-04-21T23:33:07.697Z,17.95
2023-04-21T23:35:45.791Z,21.70
2023-04-21T23:38:17.516Z,22.25
2023-04-21T23:40:49.170Z,18.15
2023-04-21T23:43:22.832Z,20.67
2023-04-21T23:45:54.824Z,17.20
2023-04-21T23:48:27.811Z,16.83
2023-04-21T23:50:59.605Z,17.13
2023-04-21T23:53:31.406Z,18.58
2023-04-21T23:56:03.586Z,21.25
2023-04-21T23:58:35.248Z,21.75
